Página principal
METAR-TAF:

METAR-TAF

Aeroportos :

Malé, Hulhule Island, Maldivas

Aeroporto Internacional Velana

latitude: 04-12N, longitude: 073-32E, altura: 2 m

Observação actual do tempo

O boletim foi feito há 36 minutos, às 13:00 UTC
Vento 2 kt com direcção variável
Temperatura 30°C
Humidade 70%
Pressão 1010 hPa
Visibilidade 10 km ou mais
Poucas nuvensa uma altura de 1900 ft

METAR: VRMM 251300Z VRB02KT 9999 FEW019 30/24 Q1010 NOSIG

Hora: 18:36 (13:36 UTC)

Previsão

O boletim foi feito há 8 horas e 36 minutos, às 05:00 UTC
Previsão válida de 25 às 06 UTC a 26 às 12 UTC
Vento 2 kt com direcção variável
Visibilidade 10 km ou mais
Poucas nuvensa uma altura de 1900 ft
Temporariamente
de 25 às 12 UTC a 25 às 18 UTC
Poucas nuvensa uma altura de 2000 ft, Cumulonimbus.

TAF: VRMM 250500Z 2506/2612 VRB02KT 9999 FEW019 TEMPO 2512/2518 FEW020CB

Observações e previsões do tempo de mais de 4000 aeroportos (mensagens METAR e TAF).

As estações disponíveis são os pontos amarelos e vermelhos sobre o mapa.

Mova o rato sobre o mapa para ver o nome da estação.

Depois clique no ponto para visualizar as observações e previsões meteorológicas.

Para alterar o mapa : clique nos botões verdes com uma cruz preta para aumentar o zoom; no botão verde com uma pitada de zoom; ou nas setas verdes para mapas adjacentes.


METAR-TAF: